createdAt,value
2018-03-30T00:04:36.858Z,20.73
2018-03-30T00:09:51.896Z,20.70
2018-03-30T00:14:54.504Z,24.73
2018-03-30T00:19:58.753Z,27.63
2018-03-30T00:25:01.325Z,39.13
2018-03-30T00:30:04.053Z,25.87
2018-03-30T00:35:06.739Z,28.63
2018-03-30T00:40:10.090Z,21.73
2018-03-30T00:45:12.686Z,24.27
2018-03-30T00:50:15.969Z,27.63
2018-03-30T00:55:20.063Z,23.27
2018-03-30T01:00:23.231Z,22.13
2018-03-30T01:05:26.356Z,23.43
2018-03-30T01:10:28.960Z,19.30
2018-03-30T01:15:32.183Z,19.57
2018-03-30T01:20:35.345Z,19.23
2018-03-30T01:25:38.977Z,23.60
2018-03-30T01:30:42.316Z,19.60
2018-03-30T01:35:45.640Z,15.80
2018-03-30T01:40:48.235Z,22.97
2018-03-30T01:45:51.103Z,23.17
2018-03-30T01:50:54.480Z,24.47
2018-03-30T01:55:57.102Z,43.17
2018-03-30T02:01:00.136Z,30.87
2018-03-30T02:06:03.486Z,28.13
2018-03-30T02:11:06.082Z,25.50
2018-03-30T02:16:09.585Z,26.30
2018-03-30T02:21:12.192Z,31.60
2018-03-30T02:26:14.774Z,26.73
2018-03-30T02:31:17.373Z,32.10
2018-03-30T02:36:19.965Z,26.80
2018-03-30T02:41:23.072Z,26.80
2018-03-30T02:46:26.418Z,26.10
2018-03-30T02:51:29.012Z,27.00
2018-03-30T02:56:31.598Z,23.87
2018-03-30T03:01:34.188Z,26.20
2018-03-30T03:06:36.788Z,25.23
2018-03-30T03:11:39.368Z,25.63
2018-03-30T03:16:42.718Z,26.27
2018-03-30T03:21:45.297Z,25.57
2018-03-30T03:26:47.891Z,23.80
2018-03-30T03:31:51.249Z,24.50
2018-03-30T03:36:53.834Z,25.30
2018-03-30T03:41:56.434Z,26.80
2018-03-30T03:46:59.229Z,23.40
2018-03-30T03:52:01.820Z,24.90
2018-03-30T03:57:05.188Z,23.67
2018-03-30T04:02:07.780Z,27.07
2018-03-30T04:07:10.352Z,32.17
2018-03-30T04:12:12.961Z,27.87
2018-03-30T04:17:15.572Z,27.30
2018-03-30T04:22:18.161Z,31.27
2018-03-30T04:27:30.697Z,31.37
2018-03-30T04:32:33.309Z,36.00
2018-03-30T04:37:35.876Z,30.43
2018-03-30T04:42:39.201Z,27.10
2018-03-30T04:47:42.461Z,28.77
2018-03-30T04:52:45.264Z,29.53
2018-03-30T04:57:48.706Z,30.80
2018-03-30T05:02:52.407Z,31.13
2018-03-30T05:07:55.058Z,32.77
2018-03-30T05:12:57.677Z,36.83
2018-03-30T05:18:00.289Z,33.33
2018-03-30T05:23:02.864Z,36.70
2018-03-30T05:28:06.028Z,35.30
2018-03-30T05:33:08.923Z,38.70
2018-03-30T05:38:12.967Z,39.33
2018-03-30T05:43:16.065Z,42.20
2018-03-30T05:48:18.691Z,39.07
2018-03-30T05:53:21.461Z,39.47
2018-03-30T05:58:24.085Z,44.60
2018-03-30T06:03:26.672Z,41.27
2018-03-30T06:08:29.306Z,48.00
2018-03-30T06:13:31.882Z,42.80
2018-03-30T06:18:34.915Z,40.40
2018-03-30T06:23:37.487Z,32.77
2018-03-30T06:28:40.085Z,37.20
2018-03-30T06:33:43.362Z,34.90
2018-03-30T06:38:45.968Z,32.20
2018-03-30T06:43:49.777Z,32.40
2018-03-30T06:48:52.372Z,32.37
2018-03-30T06:53:55.389Z,29.20
2018-03-30T06:58:58.554Z,28.87
2018-03-30T07:04:11.571Z,26.43
2018-03-30T07:09:14.481Z,34.60
2018-03-30T07:14:17.074Z,26.57
2018-03-30T07:19:20.418Z,27.20
2018-03-30T07:24:22.993Z,30.43
2018-03-30T07:29:26.461Z,31.13
2018-03-30T07:34:29.065Z,33.23
2018-03-30T07:39:31.661Z,27.50
2018-03-30T07:44:36.037Z,30.63
2018-03-30T07:49:39.920Z,25.50
2018-03-30T07:54:42.697Z,25.13
2018-03-30T07:59:46.010Z,25.30
2018-03-30T08:04:48.601Z,24.53
2018-03-30T08:09:51.203Z,17.07
2018-03-30T08:14:54.113Z,14.60
2018-03-30T08:19:57.576Z,16.20
2018-03-30T08:25:01.706Z,15.70
2018-03-30T08:30:04.643Z,15.33
2018-03-30T08:35:08.233Z,15.53
2018-03-30T08:40:11.271Z,13.90
2018-03-30T08:45:15.398Z,14.03
2018-03-30T08:50:19.539Z,13.73
2018-03-30T08:55:22.924Z,14.40
2018-03-30T09:00:25.469Z,16.83
2018-03-30T09:05:28.071Z,21.13
2018-03-30T09:10:31.408Z,21.57
2018-03-30T09:15:33.995Z,17.70
2018-03-30T09:20:36.565Z,15.17
2018-03-30T09:25:39.920Z,15.57
2018-03-30T09:30:42.505Z,14.57
2018-03-30T09:35:45.102Z,14.47
2018-03-30T09:40:47.684Z,14.83
2018-03-30T09:45:50.740Z,25.77
2018-03-30T09:50:53.601Z,25.87
2018-03-30T09:55:56.198Z,20.80
2018-03-30T10:01:01.730Z,21.07
2018-03-30T10:06:04.926Z,18.93
2018-03-30T10:11:07.506Z,19.50
2018-03-30T10:16:10.085Z,18.70
2018-03-30T10:21:12.972Z,13.77
2018-03-30T10:26:18.057Z,11.10
2018-03-30T10:31:21.233Z,6.23
2018-03-30T10:36:25.169Z,3.93
2018-03-30T10:41:28.548Z,5.30
2018-03-30T10:46:31.143Z,4.73
2018-03-30T10:51:33.736Z,5.07
2018-03-30T10:56:36.629Z,4.83
2018-03-30T11:01:45.054Z,3.87
2018-03-30T11:06:48.237Z,4.47
2018-03-30T11:11:51.587Z,3.90
2018-03-30T11:16:54.181Z,9.80
2018-03-30T11:21:56.772Z,13.70
2018-03-30T11:26:59.360Z,28.23
2018-03-30T11:32:01.954Z,9.13
2018-03-30T11:37:04.541Z,4.20
2018-03-30T11:42:08.202Z,5.20
2018-03-30T11:47:10.805Z,5.37
2018-03-30T11:52:13.983Z,4.87
2018-03-30T11:57:16.573Z,3.50
2018-03-30T12:02:20.536Z,9.40
2018-03-30T12:07:23.120Z,4.20
2018-03-30T12:12:27.120Z,2.87
2018-03-30T12:17:30.480Z,2.43
2018-03-30T12:22:33.408Z,5.30
2018-03-30T12:27:36.003Z,4.40
2018-03-30T12:32:38.775Z,3.13
2018-03-30T12:37:41.402Z,2.93
2018-03-30T12:42:43.984Z,4.10
2018-03-30T12:47:49.397Z,3.40
2018-03-30T12:52:52.463Z,2.90
2018-03-30T12:57:57.540Z,2.13
2018-03-30T13:03:00.413Z,2.23
2018-03-30T13:08:03.520Z,2.70
2018-03-30T13:13:08.608Z,1.37
2018-03-30T13:18:11.253Z,2.40
2018-03-30T13:23:14.606Z,3.83
2018-03-30T13:28:17.189Z,2.20
2018-03-30T13:33:20.045Z,1.93
2018-03-30T13:38:23.088Z,2.07
2018-03-30T13:43:32.388Z,1.90
2018-03-30T13:48:34.961Z,1.73
2018-03-30T13:53:39.282Z,2.90
2018-03-30T13:58:45.309Z,1.20
2018-03-30T14:03:53.266Z,1.60
2018-03-30T14:08:57.424Z,1.50
2018-03-30T14:14:00.019Z,1.40
2018-03-30T14:19:06.520Z,1.60
2018-03-30T14:24:10.626Z,1.90
2018-03-30T14:29:23.445Z,1.57
2018-03-30T14:34:42.229Z,2.10
2018-03-30T14:39:50.506Z,1.73
2018-03-30T14:56:00.109Z,2.00
2018-03-30T15:01:10.910Z,4.13
2018-03-30T15:06:18.133Z,2.30
2018-03-30T15:11:34.242Z,5.70
2018-03-30T15:16:42.776Z,4.87
2018-03-30T15:27:23.417Z,7.07
2018-03-30T15:38:14.238Z,6.73
2018-03-30T15:43:16.828Z,2.87
2018-03-30T15:48:19.411Z,2.50
2018-03-30T15:53:21.511Z,1.97
2018-03-30T15:58:26.725Z,2.70
2018-03-30T16:03:29.314Z,1.90
2018-03-30T16:08:32.007Z,2.03
2018-03-30T16:13:35.794Z,1.80
2018-03-30T16:18:50.402Z,3.07
2018-03-30T16:23:52.625Z,2.40
2018-03-30T16:28:54.729Z,4.70
2018-03-30T16:33:57.208Z,15.63
2018-03-30T16:38:59.301Z,8.43
2018-03-30T16:44:01.381Z,7.70
2018-03-30T16:49:03.586Z,8.70
2018-03-30T16:54:06.355Z,8.57
2018-03-30T16:59:09.197Z,9.63
2018-03-30T17:04:12.320Z,7.20
2018-03-30T17:09:15.174Z,8.00
2018-03-30T17:14:18.049Z,7.53
2018-03-30T17:19:20.137Z,7.83
2018-03-30T17:24:22.212Z,8.07
2018-03-30T17:29:25.446Z,8.30
2018-03-30T17:34:27.919Z,7.67
2018-03-30T17:39:30.016Z,8.27
2018-03-30T17:44:32.128Z,6.57
2018-03-30T17:49:34.981Z,9.20
2018-03-30T17:54:37.075Z,4.40
2018-03-30T17:59:39.301Z,3.57
2018-03-30T18:04:42.153Z,6.20
2018-03-30T18:09:44.234Z,2.10
2018-03-30T18:14:46.907Z,3.50
2018-03-30T18:19:48.994Z,1.90
2018-03-30T18:24:51.711Z,1.50
2018-03-30T18:29:53.808Z,3.33
2018-03-30T18:34:58.940Z,1.57
2018-03-30T18:40:01.054Z,1.87
2018-03-30T18:45:03.140Z,2.07
2018-03-30T18:50:05.716Z,1.33
2018-03-30T18:55:07.803Z,2.30
2018-03-30T19:00:09.884Z,2.87
2018-03-30T19:05:12.067Z,1.57
2018-03-30T19:10:14.950Z,1.47
2018-03-30T19:15:17.058Z,1.33
2018-03-30T19:20:19.957Z,1.53
2018-03-30T19:25:23.648Z,2.83
2018-03-30T19:30:28.317Z,2.40
2018-03-30T19:35:30.397Z,2.27
2018-03-30T19:40:33.250Z,1.77
2018-03-30T19:45:37.087Z,1.30
2018-03-30T19:50:39.237Z,1.50
2018-03-30T19:55:42.098Z,1.30
2018-03-30T20:00:44.199Z,2.37
2018-03-30T20:05:47.049Z,1.47
2018-03-30T20:10:49.390Z,2.03
2018-03-30T20:15:51.502Z,3.43
2018-03-30T20:20:54.357Z,1.90
2018-03-30T20:25:56.591Z,1.47
2018-03-30T20:31:00.121Z,3.33
2018-03-30T20:36:02.972Z,1.40
2018-03-30T20:41:05.496Z,1.47
2018-03-30T20:46:07.609Z,2.00
2018-03-30T20:51:10.460Z,1.80
2018-03-30T20:56:12.563Z,1.73
2018-03-30T21:01:14.668Z,1.17
2018-03-30T21:06:16.765Z,1.13
2018-03-30T21:11:18.845Z,1.93
2018-03-30T21:16:20.921Z,1.23
2018-03-30T21:21:23.008Z,1.47
2018-03-30T21:26:25.412Z,2.47
2018-03-30T21:31:28.280Z,1.20
2018-03-30T21:36:30.419Z,1.10
2018-03-30T21:41:33.286Z,1.93
2018-03-30T21:46:35.514Z,2.07
2018-03-30T21:51:37.908Z,1.20
2018-03-30T21:56:40.050Z,1.30
2018-03-30T22:01:42.899Z,1.50
2018-03-30T22:06:45.499Z,2.40
2018-03-30T22:11:48.373Z,1.10
2018-03-30T22:16:50.880Z,1.40
2018-03-30T22:21:52.978Z,3.07
2018-03-30T22:26:55.844Z,1.37
2018-03-30T22:31:58.194Z,1.47
2018-03-30T22:37:00.296Z,1.10
2018-03-30T22:42:02.393Z,1.60
2018-03-30T22:47:04.492Z,1.10
2018-03-30T22:52:06.582Z,0.80
2018-03-30T22:57:08.718Z,1.10
2018-03-30T23:02:12.434Z,0.73
2018-03-30T23:07:15.297Z,1.13
2018-03-30T23:12:17.776Z,1.00
2018-03-30T23:17:19.851Z,1.10
2018-03-30T23:22:21.978Z,1.37
2018-03-30T23:27:24.433Z,1.30
2018-03-30T23:32:28.415Z,0.93
2018-03-30T23:37:34.059Z,0.87
2018-03-30T23:42:36.152Z,1.00
2018-03-30T23:47:38.257Z,0.80
2018-03-30T23:52:41.187Z,1.20
2018-03-30T23:57:44.057Z,0.80
